createdAt,value
2016-08-15T00:00:24.919Z,1014.19
2016-08-15T00:01:24.897Z,1014.22
2016-08-15T00:02:24.879Z,1014.18
2016-08-15T00:03:24.853Z,1014.2
2016-08-15T00:04:24.831Z,1014.22
2016-08-15T00:05:24.808Z,1014.17
2016-08-15T00:06:24.787Z,1014.2
2016-08-15T00:07:24.765Z,1014.23
2016-08-15T00:08:24.742Z,1014.29
2016-08-15T00:09:24.720Z,1014.23
2016-08-15T00:10:24.698Z,1014.23
2016-08-15T00:11:24.676Z,1014.26
2016-08-15T00:12:24.654Z,1014.22
2016-08-15T00:13:24.631Z,1014.27
2016-08-15T00:14:24.610Z,1014.27
2016-08-15T00:15:24.587Z,1014.24
2016-08-15T00:16:24.566Z,1014.26
2016-08-15T00:17:24.544Z,1014.27
2016-08-15T00:18:24.522Z,1014.28
2016-08-15T00:19:24.498Z,1014.32
2016-08-15T00:20:24.477Z,1014.36
2016-08-15T00:21:24.455Z,1014.34
2016-08-15T00:22:24.432Z,1014.35
2016-08-15T00:23:24.410Z,1014.35
2016-08-15T00:24:24.388Z,1014.33
2016-08-15T00:25:24.370Z,1014.37
2016-08-15T00:26:24.343Z,1014.34
2016-08-15T00:27:24.321Z,1014.34
2016-08-15T00:28:24.299Z,1014.36
2016-08-15T00:29:24.277Z,1014.36
2016-08-15T00:30:24.255Z,1014.39
2016-08-15T00:31:24.232Z,1014.41
2016-08-15T00:32:24.211Z,1014.43
2016-08-15T00:33:24.187Z,1014.38
2016-08-15T00:34:24.165Z,1014.45
2016-08-15T00:35:24.144Z,1014.41
2016-08-15T00:36:24.123Z,1014.42
2016-08-15T00:37:24.099Z,1014.38
2016-08-15T00:38:24.077Z,1014.41
2016-08-15T00:39:24.056Z,1014.37
2016-08-15T00:40:24.036Z,1014.39
2016-08-15T00:41:24.010Z,1014.38
2016-08-15T00:42:23.989Z,1014.34
2016-08-15T00:43:23.966Z,1014.34
2016-08-15T00:44:23.942Z,1014.36
2016-08-15T00:45:23.921Z,1014.4
2016-08-15T00:46:23.899Z,1014.4
2016-08-15T00:47:23.876Z,1014.4
2016-08-15T00:48:23.859Z,1014.41
2016-08-15T00:49:23.831Z,1014.36
2016-08-15T00:50:23.809Z,1014.38
2016-08-15T00:51:23.787Z,1014.35
2016-08-15T00:52:23.765Z,1014.32
2016-08-15T00:53:23.743Z,1014.35
2016-08-15T00:54:23.722Z,1014.35
2016-08-15T00:55:23.699Z,1014.35
2016-08-15T00:56:23.676Z,1014.33
2016-08-15T00:57:23.653Z,1014.32
2016-08-15T00:58:23.634Z,1014.34
2016-08-15T00:59:23.608Z,1014.32
2016-08-15T01:00:23.586Z,1014.34
2016-08-15T01:01:23.565Z,1014.33
2016-08-15T01:02:23.540Z,1014.32
2016-08-15T01:03:23.520Z,1014.32
2016-08-15T01:04:23.500Z,1014.32
2016-08-15T01:05:23.475Z,1014.34
2016-08-15T01:06:23.452Z,1014.33
2016-08-15T01:07:23.429Z,1014.34
2016-08-15T01:08:23.408Z,1014.28
2016-08-15T01:09:23.385Z,1014.3
2016-08-15T01:10:23.364Z,1014.28
2016-08-15T01:11:23.341Z,1014.3
2016-08-15T01:12:23.318Z,1014.34
2016-08-15T01:13:23.295Z,1014.34
2016-08-15T01:14:23.273Z,1014.35
2016-08-15T01:15:23.250Z,1014.34
2016-08-15T01:16:23.228Z,1014.38
2016-08-15T01:17:23.211Z,1014.39
2016-08-15T01:18:23.185Z,1014.41
2016-08-15T01:19:23.161Z,1014.37
2016-08-15T01:20:23.139Z,1014.37
2016-08-15T01:21:23.116Z,1014.37
2016-08-15T01:22:23.093Z,1014.38
2016-08-15T01:23:23.072Z,1014.36
2016-08-15T01:24:23.058Z,1014.34
2016-08-15T01:25:23.027Z,1014.38
2016-08-15T01:26:23.005Z,1014.37
2016-08-15T01:27:22.982Z,1014.32
2016-08-15T01:28:22.960Z,1014.37
2016-08-15T01:29:22.938Z,1014.36
2016-08-15T01:30:22.915Z,1014.34
2016-08-15T01:31:22.901Z,1014.34
2016-08-15T01:32:22.870Z,1014.35
2016-08-15T01:33:22.848Z,1014.33
2016-08-15T01:34:22.827Z,1014.37
2016-08-15T01:35:22.805Z,1014.37
2016-08-15T01:36:22.832Z,1014.36
2016-08-15T01:37:22.762Z,1014.36
2016-08-15T01:38:22.738Z,1014.37
2016-08-15T01:39:22.715Z,1014.43
2016-08-15T01:40:22.693Z,1014.4
2016-08-15T01:41:22.671Z,1014.38
2016-08-15T01:42:22.649Z,1014.42
2016-08-15T01:43:22.628Z,1014.37
2016-08-15T01:44:22.605Z,1014.42
2016-08-15T01:45:22.583Z,1014.37
2016-08-15T01:46:22.561Z,1014.37
2016-08-15T01:47:22.540Z,1014.36
2016-08-15T01:48:22.521Z,1014.38
2016-08-15T01:49:22.495Z,1014.33
2016-08-15T01:50:22.473Z,1014.32
2016-08-15T01:51:22.452Z,1014.27
2016-08-15T01:52:22.429Z,1014.31
2016-08-15T01:53:22.408Z,1014.26
2016-08-15T01:54:22.386Z,1014.27
2016-08-15T01:55:22.364Z,1014.29
2016-08-15T01:56:22.343Z,1014.3
2016-08-15T01:57:22.321Z,1014.24
2016-08-15T01:58:22.298Z,1014.28
2016-08-15T01:59:22.277Z,1014.27
2016-08-15T02:00:22.256Z,1014.28
2016-08-15T02:01:22.232Z,1014.28
2016-08-15T02:02:22.211Z,1014.3
2016-08-15T02:03:22.188Z,1014.29
2016-08-15T02:04:22.167Z,1014.3
2016-08-15T02:05:22.150Z,1014.27
2016-08-15T02:06:22.123Z,1014.29
2016-08-15T02:07:22.102Z,1014.3
2016-08-15T02:08:22.080Z,1014.28
2016-08-15T02:09:22.058Z,1014.33
2016-08-15T02:10:22.038Z,1014.31
2016-08-15T02:11:22.024Z,1014.32
2016-08-15T02:12:21.993Z,1014.29
2016-08-15T02:13:21.971Z,1014.34
2016-08-15T02:14:21.951Z,1014.32
2016-08-15T02:15:21.928Z,1014.32
2016-08-15T02:16:21.905Z,1014.32
2016-08-15T02:17:21.884Z,1014.29
2016-08-15T02:18:21.863Z,1014.29
2016-08-15T02:19:21.840Z,1014.31
2016-08-15T02:20:21.820Z,1014.28
2016-08-15T02:21:21.799Z,1014.27
2016-08-15T02:22:21.776Z,1014.27
2016-08-15T02:23:21.754Z,1014.27
2016-08-15T02:24:21.733Z,1014.24
2016-08-15T02:25:21.711Z,1014.26
2016-08-15T02:26:21.691Z,1014.27
2016-08-15T02:27:21.668Z,1014.25
2016-08-15T02:28:21.647Z,1014.28
2016-08-15T02:29:21.630Z,1014.29
2016-08-15T02:30:21.603Z,1014.28
2016-08-15T02:31:21.581Z,1014.28
2016-08-15T02:32:21.561Z,1014.28
2016-08-15T02:33:21.539Z,1014.27
2016-08-15T02:34:21.516Z,1014.25
2016-08-15T02:35:21.496Z,1014.26
2016-08-15T02:36:21.474Z,1014.26
2016-08-15T02:37:21.450Z,1014.25
2016-08-15T02:38:21.430Z,1014.29
2016-08-15T02:39:21.410Z,1014.27
2016-08-15T02:40:21.386Z,1014.24
2016-08-15T02:41:21.366Z,1014.28
2016-08-15T02:42:21.343Z,1014.28
2016-08-15T02:43:21.323Z,1014.27
2016-08-15T02:44:21.299Z,1014.29
2016-08-15T02:45:21.278Z,1014.3
2016-08-15T02:46:21.257Z,1014.28
2016-08-15T02:47:21.236Z,1014.27
2016-08-15T02:48:21.212Z,1014.28
2016-08-15T02:49:21.191Z,1014.3
2016-08-15T02:50:21.170Z,1014.31
2016-08-15T02:51:21.148Z,1014.34
2016-08-15T02:52:21.125Z,1014.32
2016-08-15T02:53:21.105Z,1014.33
2016-08-15T02:54:21.083Z,1014.36
2016-08-15T02:55:21.068Z,1014.29
2016-08-15T02:56:21.038Z,1014.27
2016-08-15T02:57:21.017Z,1014.31
2016-08-15T02:58:20.997Z,1014.33
2016-08-15T02:59:20.979Z,1014.29
2016-08-15T03:00:20.959Z,1014.32
2016-08-15T03:01:20.932Z,1014.31
2016-08-15T03:02:20.908Z,1014.29
2016-08-15T03:03:20.886Z,1014.28
2016-08-15T03:04:20.864Z,1014.28
2016-08-15T03:05:20.843Z,1014.25
2016-08-15T03:06:20.822Z,1014.24
2016-08-15T03:07:20.799Z,1014.26
2016-08-15T03:08:20.778Z,1014.21
2016-08-15T03:09:20.755Z,1014.22
2016-08-15T03:10:20.734Z,1014.23
2016-08-15T03:11:20.712Z,1014.25
2016-08-15T03:12:20.690Z,1014.24
2016-08-15T03:13:20.669Z,1014.23
2016-08-15T03:14:20.646Z,1014.26
2016-08-15T03:15:20.624Z,1014.24
2016-08-15T03:16:20.603Z,1014.26
2016-08-15T03:17:20.582Z,1014.22
2016-08-15T03:18:20.559Z,1014.22
2016-08-15T03:19:20.537Z,1014.21
2016-08-15T03:20:20.515Z,1014.21
2016-08-15T03:21:20.494Z,1014.23
2016-08-15T03:22:20.472Z,1014.2
2016-08-15T03:23:20.450Z,1014.18
2016-08-15T03:24:20.430Z,1014.22
2016-08-15T03:25:20.405Z,1014.21
2016-08-15T03:26:20.385Z,1014.21
2016-08-15T03:27:20.363Z,1014.2
2016-08-15T03:28:20.340Z,1014.2
2016-08-15T03:29:20.319Z,1014.21
2016-08-15T03:30:20.297Z,1014.18
2016-08-15T03:31:20.281Z,1014.2
2016-08-15T03:32:20.252Z,1014.19
2016-08-15T03:33:20.230Z,1014.2
2016-08-15T03:34:20.210Z,1014.15
2016-08-15T03:35:20.186Z,1014.19
2016-08-15T03:36:20.164Z,1014.2
2016-08-15T03:37:20.146Z,1014.14
2016-08-15T03:38:20.121Z,1014.12
2016-08-15T03:39:20.099Z,1014.16
2016-08-15T03:40:20.076Z,1014.13
2016-08-15T03:41:20.054Z,1014.18
2016-08-15T03:42:20.033Z,1014.14
2016-08-15T03:43:20.015Z,1014.16
2016-08-15T03:44:19.988Z,1014.14
2016-08-15T03:45:19.967Z,1014.13
2016-08-15T03:46:19.945Z,1014.14
2016-08-15T03:47:19.922Z,1014.16
2016-08-15T03:48:19.899Z,1014.17
2016-08-15T03:49:19.879Z,1014.12
2016-08-15T03:50:19.856Z,1014.12
2016-08-15T03:51:19.833Z,1014.14
2016-08-15T03:52:19.812Z,1014.14
2016-08-15T03:53:19.790Z,1014.16
2016-08-15T03:54:19.767Z,1014.18
2016-08-15T03:55:19.746Z,1014.18
2016-08-15T03:56:19.727Z,1014.14
2016-08-15T03:57:19.700Z,1014.15
2016-08-15T03:58:19.678Z,1014.14
2016-08-15T03:59:19.655Z,1014.13
2016-08-15T04:00:19.635Z,1014.15
2016-08-15T04:01:19.613Z,1014.13
2016-08-15T04:02:19.591Z,1014.11
2016-08-15T04:03:19.569Z,1014.12
2016-08-15T04:04:19.547Z,1014.12
2016-08-15T04:05:19.525Z,1014.09
2016-08-15T04:06:19.503Z,1014.09
2016-08-15T04:07:19.484Z,1014.09
2016-08-15T04:08:19.459Z,1014.1
2016-08-15T04:09:19.436Z,1014.14
2016-08-15T04:10:19.415Z,1014.1
2016-08-15T04:11:19.393Z,1014.11
2016-08-15T04:12:19.371Z,1014.12
2016-08-15T04:13:19.348Z,1014.09
2016-08-15T04:14:19.327Z,1014.1
2016-08-15T04:15:19.305Z,1014.14
2016-08-15T04:16:19.282Z,1014.11
2016-08-15T04:17:19.260Z,1014.12
2016-08-15T04:18:19.240Z,1014.14
2016-08-15T04:19:19.218Z,1014.11
2016-08-15T04:20:19.195Z,1014.15
2016-08-15T04:21:19.173Z,1014.14
2016-08-15T04:22:19.152Z,1014.15
2016-08-15T04:23:19.129Z,1014.21
2016-08-15T04:24:19.108Z,1014.17
2016-08-15T04:25:19.086Z,1014.16
2016-08-15T04:26:19.064Z,1014.19
2016-08-15T04:27:19.042Z,1014.2
2016-08-15T04:28:19.023Z,1014.19
2016-08-15T04:29:19.002Z,1014.18
2016-08-15T04:30:18.976Z,1014.19
2016-08-15T04:31:18.954Z,1014.14
2016-08-15T04:32:18.932Z,1014.15
2016-08-15T04:33:18.911Z,1014.16
2016-08-15T04:34:18.889Z,1014.13
2016-08-15T04:35:18.867Z,1014.11
2016-08-15T04:36:18.845Z,1014.11
2016-08-15T04:37:18.824Z,1014.13
2016-08-15T04:38:18.803Z,1014.12
2016-08-15T04:39:18.780Z,1014.14
2016-08-15T04:40:18.759Z,1014.13
2016-08-15T04:41:18.736Z,1014.08
2016-08-15T04:42:18.719Z,1014.1
2016-08-15T04:43:18.693Z,1014.13
2016-08-15T04:44:18.671Z,1014.18
2016-08-15T04:45:18.649Z,1014.17
2016-08-15T04:46:18.628Z,1014.15
2016-08-15T04:47:18.605Z,1014.16
2016-08-15T04:48:18.584Z,1014.14
2016-08-15T04:49:18.561Z,1014.18
2016-08-15T04:50:18.540Z,1014.18
2016-08-15T04:51:18.626Z,1014.14
2016-08-15T04:52:18.497Z,1014.16
2016-08-15T04:53:18.473Z,1014.13
2016-08-15T04:54:18.453Z,1014.11
2016-08-15T04:55:18.431Z,1014.07
2016-08-15T04:56:18.411Z,1014.08
2016-08-15T04:57:18.386Z,1014.09
2016-08-15T04:58:18.366Z,1014.12
2016-08-15T04:59:18.343Z,1014.17
2016-08-15T05:00:18.327Z,1014.18
2016-08-15T05:01:18.298Z,1014.19
2016-08-15T05:02:18.276Z,1014.2
2016-08-15T05:03:18.255Z,1014.19
2016-08-15T05:04:18.232Z,1014.2
2016-08-15T05:05:18.211Z,1014.18
2016-08-15T05:06:18.189Z,1014.19
2016-08-15T05:07:18.166Z,1014.16
2016-08-15T05:08:18.144Z,1014.16
2016-08-15T05:09:18.125Z,1014.16
2016-08-15T05:10:18.101Z,1014.14
2016-08-15T05:11:18.079Z,1014.1
2016-08-15T05:12:18.058Z,1014.12
2016-08-15T05:13:18.036Z,1014.14
2016-08-15T05:14:18.015Z,1014.14
2016-08-15T05:15:17.992Z,1014.15
2016-08-15T05:16:17.971Z,1014.14
2016-08-15T05:17:17.955Z,1014.16
2016-08-15T05:18:17.926Z,1014.22
2016-08-15T05:19:17.907Z,1014.22
2016-08-15T05:20:17.884Z,1014.22
2016-08-15T05:21:17.863Z,1014.25
2016-08-15T05:22:17.841Z,1014.26
2016-08-15T05:23:17.819Z,1014.26
2016-08-15T05:24:17.798Z,1014.3
2016-08-15T05:25:17.776Z,1014.21
2016-08-15T05:26:17.754Z,1014.21
2016-08-15T05:27:17.733Z,1014.22
2016-08-15T05:28:17.711Z,1014.2
2016-08-15T05:29:17.691Z,1014.24
2016-08-15T05:30:17.668Z,1014.23
2016-08-15T05:31:17.648Z,1014.24
2016-08-15T05:32:17.627Z,1014.26
2016-08-15T05:33:17.605Z,1014.23
2016-08-15T05:34:17.633Z,1014.25
2016-08-15T05:35:17.562Z,1014.23
2016-08-15T05:36:17.541Z,1014.26
2016-08-15T05:37:17.519Z,1014.21
2016-08-15T05:38:17.498Z,1014.24
2016-08-15T05:39:17.485Z,1014.23
2016-08-15T05:40:17.456Z,1014.25
2016-08-15T05:41:17.434Z,1014.28
2016-08-15T05:42:17.420Z,1014.25
2016-08-15T05:43:17.391Z,1014.25
2016-08-15T05:44:17.374Z,1014.27
2016-08-15T05:45:17.350Z,1014.29
2016-08-15T05:46:17.419Z,1014.28
2016-08-15T05:47:17.308Z,1014.27
2016-08-15T05:48:17.287Z,1014.27
2016-08-15T05:49:17.270Z,1014.33
2016-08-15T05:50:17.245Z,1014.31
2016-08-15T05:51:17.222Z,1014.32
2016-08-15T05:52:17.202Z,1014.32
2016-08-15T05:53:17.192Z,1014.32
2016-08-15T05:54:17.161Z,1014.35
2016-08-15T05:55:17.139Z,1014.29
2016-08-15T05:56:17.119Z,1014.32
2016-08-15T05:57:17.097Z,1014.27
2016-08-15T05:58:17.078Z,1014.27
2016-08-15T05:59:17.056Z,1014.34
2016-08-15T06:00:17.035Z,1014.34
2016-08-15T06:01:17.015Z,1014.35
2016-08-15T06:02:16.993Z,1014.34
2016-08-15T06:03:16.972Z,1014.35
2016-08-15T06:04:16.993Z,1014.32
2016-08-15T06:05:16.932Z,1014.35
2016-08-15T06:06:16.911Z,1014.33
2016-08-15T06:07:16.890Z,1014.32
2016-08-15T06:08:16.870Z,1014.34
2016-08-15T06:09:16.859Z,1014.36
2016-08-15T06:10:16.868Z,1014.37
2016-08-15T06:11:16.810Z,1014.39
2016-08-15T06:12:16.790Z,1014.34
2016-08-15T06:13:16.771Z,1014.34
2016-08-15T06:14:16.748Z,1014.33
2016-08-15T06:15:16.730Z,1014.36
2016-08-15T06:16:16.710Z,1014.39
2016-08-15T06:17:16.733Z,1014.39
2016-08-15T06:18:16.713Z,1014.39
2016-08-15T06:19:16.653Z,1014.42
2016-08-15T06:20:16.632Z,1014.45
2016-08-15T06:21:16.667Z,1014.41
2016-08-15T06:22:16.619Z,1014.43
2016-08-15T06:23:16.574Z,1014.37
2016-08-15T06:24:16.597Z,1014.38
2016-08-15T06:25:16.577Z,1014.41
2016-08-15T06:26:16.617Z,1014.4
2016-08-15T06:27:16.595Z,1014.37
2016-08-15T06:28:16.477Z,1014.4
2016-08-15T06:29:16.460Z,1014.38
2016-08-15T06:30:16.440Z,1014.38
2016-08-15T06:31:16.419Z,1014.43
2016-08-15T06:32:16.401Z,1014.38
2016-08-15T06:33:16.381Z,1014.39
2016-08-15T06:34:16.363Z,1014.42
2016-08-15T06:35:16.343Z,1014.47
2016-08-15T06:36:16.326Z,1014.43
2016-08-15T06:37:16.308Z,1014.43
2016-08-15T06:38:16.289Z,1014.34
2016-08-15T06:39:16.271Z,1014.36
2016-08-15T06:40:16.253Z,1014.4
2016-08-15T06:41:16.235Z,1014.4
2016-08-15T06:42:16.217Z,1014.37
2016-08-15T06:43:16.201Z,1014.34
2016-08-15T06:44:16.183Z,1014.41
2016-08-15T06:45:16.256Z,1014.34
2016-08-15T06:46:16.201Z,1014.36
2016-08-15T06:47:16.193Z,1014.35
2016-08-15T06:48:16.163Z,1014.38
2016-08-15T06:49:16.149Z,1014.36
2016-08-15T06:50:16.080Z,1014.39
2016-08-15T06:51:16.064Z,1014.37
2016-08-15T06:52:16.047Z,1014.37
2016-08-15T06:53:16.054Z,1014.4
2016-08-15T06:54:16.014Z,1014.39
2016-08-15T06:55:16.108Z,1014.39
2016-08-15T06:56:16.542Z,1014.38
2016-08-15T06:57:16.125Z,1014.4
2016-08-15T06:58:15.949Z,1014.38
2016-08-15T06:59:16.231Z,1014.39
2016-08-15T07:00:15.919Z,1014.39
2016-08-15T07:01:15.906Z,1014.41
2016-08-15T07:02:16.074Z,1014.43
2016-08-15T07:03:16.082Z,1014.41
2016-08-15T07:04:16.140Z,1014.46
2016-08-15T07:05:16.094Z,1014.44
2016-08-15T07:06:16.187Z,1014.4
2016-08-15T07:07:16.086Z,1014.44
2016-08-15T07:08:16.032Z,1014.41
2016-08-15T07:09:15.990Z,1014.4
2016-08-15T07:10:15.941Z,1014.41
2016-08-15T07:11:15.908Z,1014.45
2016-08-15T07:12:15.944Z,1014.43
2016-08-15T07:13:15.829Z,1014.49
2016-08-15T07:14:16.045Z,1014.46
2016-08-15T07:15:15.921Z,1014.4
2016-08-15T07:16:15.676Z,1014.39
2016-08-15T07:17:15.672Z,1014.41
2016-08-15T07:18:15.732Z,1014.41
2016-08-15T07:19:15.613Z,1014.38
2016-08-15T07:20:15.845Z,1014.41
2016-08-15T07:21:15.889Z,1014.41
2016-08-15T07:22:15.565Z,1014.39
2016-08-15T07:23:15.549Z,1014.45
2016-08-15T07:24:15.533Z,1014.42
2016-08-15T07:25:15.519Z,1014.4
2016-08-15T07:26:15.565Z,1014.4
2016-08-15T07:27:15.772Z,1014.39
2016-08-15T07:28:15.617Z,1014.41
2016-08-15T07:29:15.678Z,1014.39
2016-08-15T07:30:15.496Z,1014.42
2016-08-15T07:31:15.485Z,1014.41
2016-08-15T07:32:15.464Z,1014.38
2016-08-15T07:33:15.397Z,1014.4
2016-08-15T07:34:15.438Z,1014.44
2016-08-15T07:35:15.489Z,1014.42
2016-08-15T07:36:15.592Z,1014.43
2016-08-15T07:37:15.471Z,1014.44
2016-08-15T07:38:15.383Z,1014.42
2016-08-15T07:39:15.364Z,1014.37
2016-08-15T07:40:15.401Z,1014.37
2016-08-15T07:41:15.282Z,1014.36
2016-08-15T07:42:15.349Z,1014.34
2016-08-15T07:43:15.370Z,1014.35
2016-08-15T07:44:15.355Z,1014.34
2016-08-15T07:45:15.343Z,1014.34
2016-08-15T07:46:15.372Z,1014.3
2016-08-15T07:47:15.493Z,1014.3
2016-08-15T07:48:15.359Z,1014.26
2016-08-15T07:49:15.234Z,1014.33
2016-08-15T07:50:15.384Z,1014.33
2016-08-15T07:51:15.813Z,1014.32
2016-08-15T07:52:15.492Z,1014.24
2016-08-15T07:53:15.492Z,1014.27
2016-08-15T07:54:15.399Z,1014.27
2016-08-15T07:55:15.299Z,1014.29
2016-08-15T07:56:15.238Z,1014.25
2016-08-15T07:57:15.329Z,1014.22
2016-08-15T07:58:15.260Z,1014.23
2016-08-15T07:59:15.339Z,1014.27
2016-08-15T08:00:15.278Z,1014.24
2016-08-15T08:01:15.207Z,1014.28
2016-08-15T08:02:15.213Z,1014.29
2016-08-15T08:03:15.226Z,1014.26
2016-08-15T08:04:15.110Z,1014.26
2016-08-15T08:05:15.287Z,1014.25
2016-08-15T08:06:15.178Z,1014.26
2016-08-15T08:07:15.205Z,1014.22
2016-08-15T08:08:15.036Z,1014.23
2016-08-15T08:09:15.025Z,1014.27
2016-08-15T08:10:15.135Z,1014.22
2016-08-15T08:11:15.159Z,1014.25
2016-08-15T08:12:15.009Z,1014.23
2016-08-15T08:13:14.979Z,1014.22
2016-08-15T08:14:15.243Z,1014.22
2016-08-15T08:15:15.076Z,1014.28
2016-08-15T08:16:15.143Z,1014.22
2016-08-15T08:17:14.879Z,1014.25
2016-08-15T08:18:14.922Z,1014.22
2016-08-15T08:19:14.955Z,1014.23
2016-08-15T08:20:14.916Z,1014.25
2016-08-15T08:21:14.976Z,1014.24
2016-08-15T08:22:15.019Z,1014.17
2016-08-15T08:23:15.036Z,1014.19
2016-08-15T08:24:14.962Z,1014.19
2016-08-15T08:25:15.038Z,1014.18
2016-08-15T08:26:14.917Z,1014.18
2016-08-15T08:27:14.970Z,1014.17
2016-08-15T08:28:14.958Z,1014.21
2016-08-15T08:29:14.947Z,1014.11
2016-08-15T08:30:14.952Z,1014.14
2016-08-15T08:31:14.880Z,1014.17
2016-08-15T08:32:14.945Z,1014.14
2016-08-15T08:33:14.913Z,1014.19
2016-08-15T08:34:14.905Z,1014.15
2016-08-15T08:35:14.807Z,1014.16
2016-08-15T08:36:14.826Z,1014.11
2016-08-15T08:37:14.980Z,1014.06
2016-08-15T08:38:14.880Z,1014.12
2016-08-15T08:39:14.808Z,1014.11
2016-08-15T08:40:15.044Z,1014.09
2016-08-15T08:41:14.910Z,1014.09
2016-08-15T08:42:14.809Z,1014.11
2016-08-15T08:43:14.781Z,1014.13
2016-08-15T08:44:14.614Z,1014.16
2016-08-15T08:45:14.664Z,1014.14
2016-08-15T08:46:14.528Z,1014.08
2016-08-15T08:47:14.572Z,1014.09
2016-08-15T08:48:14.528Z,1014.1
2016-08-15T08:49:14.503Z,1014.1
2016-08-15T08:50:14.522Z,1014.08
2016-08-15T08:51:14.554Z,1014.1
2016-08-15T08:52:14.653Z,1014.12
2016-08-15T08:53:14.650Z,1014.12
2016-08-15T08:54:14.619Z,1014.11
2016-08-15T08:55:14.676Z,1014.05
2016-08-15T08:56:14.706Z,1014.06
2016-08-15T08:57:14.680Z,1014.08
2016-08-15T08:58:14.716Z,1014.08
2016-08-15T08:59:14.666Z,1014.07
2016-08-15T09:00:14.610Z,1014.1
2016-08-15T09:01:14.661Z,1014.12
2016-08-15T09:02:14.587Z,1014.12
2016-08-15T09:03:14.460Z,1014.11
2016-08-15T09:04:14.523Z,1014.08
2016-08-15T09:05:14.558Z,1014.07
2016-08-15T09:06:14.416Z,1014.1
2016-08-15T09:07:14.855Z,1014.07
2016-08-15T09:08:14.342Z,1014.07
2016-08-15T09:09:14.549Z,1014.14
2016-08-15T09:10:14.521Z,1014.09
2016-08-15T09:11:14.598Z,1014.12
2016-08-15T09:12:14.536Z,1014.06
2016-08-15T09:13:14.524Z,1014.08
2016-08-15T09:14:14.531Z,1014.02
2016-08-15T09:15:14.520Z,1014.04
2016-08-15T09:16:14.519Z,1013.99
2016-08-15T09:17:14.464Z,1013.96
2016-08-15T09:18:14.448Z,1014
2016-08-15T09:19:14.429Z,1013.95
2016-08-15T09:20:14.492Z,1013.89
2016-08-15T09:21:14.447Z,1013.93
2016-08-15T09:22:14.352Z,1013.89
2016-08-15T09:23:14.398Z,1013.89
2016-08-15T09:24:14.418Z,1013.91
2016-08-15T09:25:14.435Z,1013.86
2016-08-15T09:26:14.401Z,1013.91
2016-08-15T09:27:14.152Z,1013.87
2016-08-15T09:28:14.215Z,1013.85
2016-08-15T09:29:14.334Z,1013.9
2016-08-15T09:30:14.518Z,1013.85
2016-08-15T09:31:14.271Z,1013.84
2016-08-15T09:32:14.257Z,1013.9
2016-08-15T09:33:14.258Z,1013.88
2016-08-15T09:34:14.371Z,1013.84
2016-08-15T09:35:14.173Z,1013.82
2016-08-15T09:36:14.150Z,1013.89
2016-08-15T09:37:14.299Z,1013.85
2016-08-15T09:38:14.310Z,1013.85
2016-08-15T09:39:14.265Z,1013.84
2016-08-15T09:40:14.336Z,1013.8
2016-08-15T09:41:14.286Z,1013.88
2016-08-15T09:42:14.293Z,1013.81
2016-08-15T09:43:14.197Z,1013.85
2016-08-15T09:44:14.283Z,1013.78
2016-08-15T09:45:14.280Z,1013.79
2016-08-15T09:46:14.324Z,1013.84
2016-08-15T09:47:14.292Z,1013.78
2016-08-15T09:48:14.235Z,1013.77
2016-08-15T09:49:14.065Z,1013.78
2016-08-15T09:50:14.183Z,1013.78
2016-08-15T09:51:14.103Z,1013.75
2016-08-15T09:52:14.312Z,1013.73
2016-08-15T09:53:14.158Z,1013.8
2016-08-15T09:54:14.184Z,1013.78
2016-08-15T09:55:14.159Z,1013.8
2016-08-15T09:56:14.142Z,1013.75
2016-08-15T09:57:14.097Z,1013.78
2016-08-15T09:58:14.135Z,1013.78
2016-08-15T09:59:13.992Z,1013.8
2016-08-15T10:00:14.149Z,1013.8
2016-08-15T10:01:14.150Z,1013.78
2016-08-15T10:02:14.025Z,1013.75
2016-08-15T10:03:14.051Z,1013.78
2016-08-15T10:04:13.952Z,1013.77
2016-08-15T10:05:14.006Z,1013.75
2016-08-15T10:06:13.791Z,1013.79
2016-08-15T10:07:13.805Z,1013.81
2016-08-15T10:08:13.772Z,1013.77
2016-08-15T10:09:13.861Z,1013.77
2016-08-15T10:10:13.763Z,1013.78
2016-08-15T10:11:13.744Z,1013.73
2016-08-15T10:12:13.728Z,1013.73
2016-08-15T10:13:13.662Z,1013.74
2016-08-15T10:14:13.704Z,1013.77
2016-08-15T10:15:13.691Z,1013.72
2016-08-15T10:16:13.898Z,1013.75
2016-08-15T10:17:13.851Z,1013.7
2016-08-15T10:18:13.844Z,1013.75
2016-08-15T10:20:13.752Z,1013.82
2016-08-15T10:21:13.880Z,1013.8
2016-08-15T10:22:13.723Z,1013.76
2016-08-15T10:23:13.677Z,1013.74
2016-08-15T10:24:13.526Z,1013.74
2016-08-15T10:25:13.511Z,1013.73
2016-08-15T10:26:13.550Z,1013.76
2016-08-15T10:27:13.594Z,1013.71
2016-08-15T10:28:13.491Z,1013.71
2016-08-15T10:29:13.512Z,1013.67
2016-08-15T10:30:13.545Z,1013.69
2016-08-15T10:31:13.488Z,1013.67
2016-08-15T10:32:13.475Z,1013.67
2016-08-15T10:33:13.461Z,1013.67
2016-08-15T10:34:13.448Z,1013.67
2016-08-15T10:35:13.435Z,1013.59
2016-08-15T10:36:13.401Z,1013.54
2016-08-15T10:37:13.409Z,1013.61
2016-08-15T10:38:13.418Z,1013.56
2016-08-15T10:39:13.936Z,1013.6
2016-08-15T10:40:13.379Z,1013.53
2016-08-15T10:41:13.589Z,1013.5
2016-08-15T10:42:13.462Z,1013.45
2016-08-15T10:43:13.540Z,1013.32
2016-08-15T10:44:13.387Z,1013.48
2016-08-15T10:45:13.370Z,1013.47
2016-08-15T10:46:13.547Z,1013.45
2016-08-15T10:47:13.375Z,1013.45
2016-08-15T10:48:13.476Z,1013.5
2016-08-15T10:49:13.319Z,1013.47
2016-08-15T10:50:13.332Z,1013.47
2016-08-15T10:51:13.217Z,1013.48
2016-08-15T10:52:13.214Z,1013.48
2016-08-15T10:53:13.264Z,1013.46
2016-08-15T10:54:13.189Z,1013.47
2016-08-15T10:55:13.363Z,1013.51
2016-08-15T10:56:13.268Z,1013.49
2016-08-15T10:57:13.369Z,1013.53
2016-08-15T10:58:13.251Z,1013.52
2016-08-15T10:59:13.128Z,1013.49
2016-08-15T11:00:13.351Z,1013.43
2016-08-15T11:01:13.181Z,1013.47
2016-08-15T11:02:13.074Z,1013.42
2016-08-15T11:03:13.067Z,1013.41
2016-08-15T11:04:13.109Z,1013.46
2016-08-15T11:05:13.047Z,1013.49
2016-08-15T11:06:13.034Z,1013.49
2016-08-15T11:07:13.030Z,1013.43
2016-08-15T11:08:13.007Z,1013.44
2016-08-15T11:09:12.992Z,1013.48
2016-08-15T11:10:12.928Z,1013.44
2016-08-15T11:11:12.913Z,1013.43
2016-08-15T11:12:12.984Z,1013.43
2016-08-15T11:13:13.003Z,1013.37
2016-08-15T11:14:13.043Z,1013.38
2016-08-15T11:15:12.860Z,1013.43
2016-08-15T11:16:12.845Z,1013.42
2016-08-15T11:17:12.834Z,1013.42
2016-08-15T11:18:12.939Z,1013.43
2016-08-15T11:19:12.854Z,1013.43
2016-08-15T11:20:12.793Z,1013.44
2016-08-15T11:21:12.779Z,1013.42
2016-08-15T11:22:12.767Z,1013.49
2016-08-15T11:23:12.968Z,1013.5
2016-08-15T11:24:12.739Z,1013.54
2016-08-15T11:25:12.726Z,1013.48
2016-08-15T11:26:12.910Z,1013.48
2016-08-15T11:27:12.828Z,1013.46
2016-08-15T11:28:12.831Z,1013.49
2016-08-15T11:29:12.901Z,1013.5
2016-08-15T11:30:12.820Z,1013.53
2016-08-15T11:31:12.684Z,1013.51
2016-08-15T11:32:12.690Z,1013.44
2016-08-15T11:33:12.798Z,1013.46
2016-08-15T11:34:12.732Z,1013.46
2016-08-15T11:35:12.698Z,1013.45
2016-08-15T11:36:12.755Z,1013.45
2016-08-15T11:37:12.594Z,1013.44
2016-08-15T11:38:12.670Z,1013.46
2016-08-15T11:39:12.615Z,1013.44
2016-08-15T11:40:12.784Z,1013.42
2016-08-15T11:41:12.554Z,1013.4
2016-08-15T11:42:12.495Z,1013.44
2016-08-15T11:43:12.492Z,1013.35
2016-08-15T11:44:12.550Z,1013.35
2016-08-15T11:45:12.635Z,1013.36
2016-08-15T11:46:12.441Z,1013.36
2016-08-15T11:47:12.509Z,1013.32
2016-08-15T11:48:12.431Z,1013.32
2016-08-15T11:49:12.400Z,1013.34
2016-08-15T11:50:12.442Z,1013.36
2016-08-15T11:51:12.375Z,1013.33
2016-08-15T11:52:12.367Z,1013.31
2016-08-15T11:53:12.404Z,1013.31
2016-08-15T11:54:12.333Z,1013.3
2016-08-15T11:55:12.320Z,1013.27
2016-08-15T11:56:12.335Z,1013.27
2016-08-15T11:57:12.294Z,1013.23
2016-08-15T11:58:12.280Z,1013.27
2016-08-15T11:59:12.353Z,1013.29
2016-08-15T12:00:12.354Z,1013.18
2016-08-15T12:01:12.306Z,1013.31
2016-08-15T12:02:12.223Z,1013.24
2016-08-15T12:03:12.388Z,1013.19
2016-08-15T12:04:12.289Z,1013.18
2016-08-15T12:05:12.256Z,1013.21
2016-08-15T12:06:12.381Z,1013.2
2016-08-15T12:07:12.422Z,1013.26
2016-08-15T12:08:12.147Z,1013.27